createdAt,value
2023-04-14T00:04:22.216Z,9.15
2023-04-14T00:09:25.057Z,8.15
2023-04-14T00:14:27.537Z,7.47
2023-04-14T00:19:30.313Z,6.53
2023-04-14T00:24:33.205Z,6.18
2023-04-14T00:29:36.460Z,5.07
2023-04-14T00:34:41.098Z,5.55
2023-04-14T00:39:45.081Z,5.47
2023-04-14T00:44:49.194Z,4.80
2023-04-14T00:49:52.265Z,4.07
2023-04-14T00:54:54.900Z,3.43
2023-04-14T00:59:59.653Z,3.55
2023-04-14T01:05:02.436Z,2.92
2023-04-14T01:10:06.198Z,4.88
2023-04-14T01:15:15.087Z,2.90
2023-04-14T01:20:38.004Z,2.63
2023-04-14T01:26:05.705Z,2.72
2023-04-14T01:31:33.284Z,2.60
2023-04-14T01:36:49.300Z,2.75
2023-04-14T01:41:56.278Z,2.83
2023-04-14T01:47:05.197Z,2.80
2023-04-14T01:52:12.602Z,2.60
2023-04-14T01:57:16.712Z,2.50
2023-04-14T02:02:20.764Z,2.97
2023-04-14T02:07:25.461Z,2.92
2023-04-14T02:12:33.694Z,2.70
2023-04-14T02:17:39.878Z,3.08
2023-04-14T02:22:42.486Z,3.63
2023-04-14T02:27:47.923Z,3.15
2023-04-14T02:32:56.821Z,3.38
2023-04-14T02:38:11.117Z,3.63
2023-04-14T02:43:20.736Z,3.97
2023-04-14T02:48:35.265Z,5.60
2023-04-14T02:53:38.846Z,4.45
2023-04-14T02:58:48.972Z,4.63
2023-04-14T03:03:53.596Z,4.55
2023-04-14T03:09:00.175Z,4.50
2023-04-14T03:14:07.942Z,4.25
2023-04-14T03:19:13.902Z,4.63
2023-04-14T03:24:25.798Z,4.70
2023-04-14T03:29:36.514Z,5.10
2023-04-14T03:34:42.346Z,4.93
2023-04-14T03:39:50.935Z,4.95
2023-04-14T03:44:56.463Z,5.65
2023-04-14T03:50:01.416Z,4.90
2023-04-14T03:55:07.175Z,5.43
2023-04-14T04:00:14.465Z,5.75
2023-04-14T04:05:19.178Z,9.02
2023-04-14T04:10:22.320Z,6.82
2023-04-14T04:15:28.422Z,6.03
2023-04-14T04:20:32.466Z,6.78
2023-04-14T04:25:38.947Z,5.25
2023-04-14T04:30:53.159Z,5.78
2023-04-14T04:35:56.547Z,6.85
2023-04-14T04:41:29.601Z,6.60
2023-04-14T04:46:47.962Z,6.25
2023-04-14T04:51:54.245Z,6.22
2023-04-14T04:56:59.090Z,6.20
2023-04-14T05:02:02.071Z,5.47
2023-04-14T05:07:04.740Z,6.30
2023-04-14T05:12:10.267Z,5.55
2023-04-14T05:17:12.906Z,5.53
2023-04-14T05:22:16.118Z,6.82
2023-04-14T05:27:18.942Z,5.82
2023-04-14T05:32:22.502Z,6.93
2023-04-14T05:42:28.437Z,7.20
2023-04-14T05:47:32.073Z,8.15
2023-04-14T05:52:37.174Z,7.70
2023-04-14T05:57:39.800Z,8.88
2023-04-14T06:02:42.891Z,8.60
2023-04-14T06:07:47.124Z,9.13
2023-04-14T06:12:49.652Z,8.88
2023-04-14T06:17:52.457Z,9.85
2023-04-14T06:22:56.085Z,10.13
2023-04-14T06:33:04.937Z,11.02
2023-04-14T06:38:11.262Z,10.77
2023-04-14T06:43:15.234Z,54.50
2023-04-14T06:48:17.687Z,28.65
2023-04-14T06:53:20.130Z,16.05
2023-04-14T06:58:22.816Z,20.67
2023-04-14T07:03:25.636Z,17.23
2023-04-14T07:08:32.299Z,21.07
2023-04-14T07:13:35.662Z,19.83
2023-04-14T07:18:38.280Z,19.95
2023-04-14T07:23:41.838Z,23.55
2023-04-14T07:28:45.631Z,18.33
2023-04-14T07:33:53.332Z,19.63
2023-04-14T07:38:55.950Z,16.25
2023-04-14T07:44:04.438Z,17.75
2023-04-14T07:49:06.872Z,16.30
2023-04-14T07:54:09.817Z,17.05
2023-04-14T07:59:12.598Z,17.35
2023-04-14T08:04:15.842Z,15.85
2023-04-14T08:09:19.071Z,17.55
2023-04-14T08:14:23.796Z,16.77
2023-04-14T08:19:26.195Z,17.98
2023-04-14T08:24:29.076Z,22.03
2023-04-14T08:29:31.611Z,24.10
2023-04-14T08:34:34.159Z,28.40
2023-04-14T08:39:36.970Z,28.75
2023-04-14T08:44:43.027Z,20.13
2023-04-14T08:50:13.297Z,18.55
2023-04-14T08:55:17.030Z,24.17
2023-04-14T09:00:20.144Z,23.25
2023-04-14T09:05:23.533Z,21.80
2023-04-14T09:10:26.744Z,23.20
2023-04-14T09:20:41.018Z,20.73
2023-04-14T09:25:45.244Z,19.77
2023-04-14T09:30:49.100Z,18.35
2023-04-14T09:35:52.365Z,22.65
2023-04-14T09:40:56.878Z,25.83
2023-04-14T09:46:10.064Z,27.20
2023-04-14T09:51:14.854Z,27.50
2023-04-14T09:56:17.525Z,24.95
2023-04-14T10:01:20.732Z,23.05
2023-04-14T10:06:24.460Z,24.13
2023-04-14T10:11:29.892Z,26.00
2023-04-14T10:16:33.420Z,34.92
2023-04-14T10:21:36.439Z,28.35
2023-04-14T10:26:38.964Z,26.75
2023-04-14T10:31:44.094Z,27.80
2023-04-14T10:36:49.068Z,27.92
2023-04-14T10:41:52.893Z,28.90
2023-04-14T10:46:57.632Z,32.25
2023-04-14T10:52:26.206Z,27.60
2023-04-14T10:57:30.179Z,27.33
2023-04-14T11:02:34.001Z,31.08
2023-04-14T11:07:55.981Z,33.63
2023-04-14T11:13:04.149Z,39.10
2023-04-14T11:18:15.612Z,33.75
2023-04-14T11:23:19.469Z,33.25
2023-04-14T11:28:32.086Z,30.83
2023-04-14T11:33:37.517Z,30.53
2023-04-14T11:38:43.655Z,33.17
2023-04-14T11:43:49.096Z,30.23
2023-04-14T11:48:56.227Z,29.35
2023-04-14T11:54:00.157Z,29.35
2023-04-14T11:59:04.296Z,31.98
2023-04-14T12:04:08.059Z,33.00
2023-04-14T12:09:11.423Z,29.40
2023-04-14T12:14:14.349Z,34.17
2023-04-14T12:19:16.843Z,31.40
2023-04-14T12:24:21.692Z,33.03
2023-04-14T12:29:24.153Z,33.80
2023-04-14T12:34:30.224Z,29.37
2023-04-14T12:39:32.744Z,31.45
2023-04-14T12:44:38.994Z,31.30
2023-04-14T12:49:41.532Z,31.58
2023-04-14T12:54:52.340Z,29.70
2023-04-14T12:59:56.384Z,26.70
2023-04-14T13:04:59.394Z,27.27
2023-04-14T13:10:04.015Z,27.05
2023-04-14T13:15:08.120Z,23.77
2023-04-14T13:20:11.787Z,25.27
2023-04-14T13:25:15.371Z,24.75
2023-04-14T13:30:20.411Z,28.48
2023-04-14T13:35:31.732Z,31.02
2023-04-14T13:40:39.136Z,26.60
2023-04-14T13:45:42.044Z,23.40
2023-04-14T13:50:44.793Z,30.75
2023-04-14T13:55:47.443Z,31.60
2023-04-14T14:00:50.222Z,36.17
2023-04-14T14:06:01.230Z,30.90
2023-04-14T14:11:06.311Z,28.02
2023-04-14T14:16:09.539Z,27.67
2023-04-14T14:21:22.787Z,31.67
2023-04-14T14:26:26.166Z,30.48
2023-04-14T14:31:29.964Z,31.92
2023-04-14T14:36:32.651Z,30.45
2023-04-14T14:41:35.295Z,28.50
2023-04-14T14:46:39.951Z,25.33
2023-04-14T14:51:44.602Z,25.02
2023-04-14T14:56:48.317Z,31.45
2023-04-14T15:01:51.326Z,33.15
2023-04-14T15:06:59.662Z,35.03
2023-04-14T15:12:05.886Z,27.80
2023-04-14T15:17:08.685Z,30.02
2023-04-14T15:22:12.432Z,32.10
2023-04-14T15:27:15.004Z,29.05
2023-04-14T15:32:17.809Z,49.17
2023-04-14T15:37:20.734Z,28.40
2023-04-14T15:42:27.089Z,26.02
2023-04-14T15:47:32.016Z,30.08
2023-04-14T15:52:40.085Z,28.30
2023-04-14T15:57:43.377Z,35.25
2023-04-14T16:02:46.551Z,36.25
2023-04-14T16:12:56.296Z,29.02
2023-04-14T16:18:03.091Z,28.27
2023-04-14T16:28:08.582Z,30.67
2023-04-14T16:33:11.279Z,35.20
2023-04-14T16:38:14.103Z,42.65
2023-04-14T16:43:17.456Z,39.15
2023-04-14T16:53:23.016Z,37.53
2023-04-14T16:58:26.008Z,34.67
2023-04-14T17:03:29.223Z,37.72
2023-04-14T17:08:31.952Z,39.63
2023-04-14T17:13:45.034Z,37.30
2023-04-14T17:18:53.132Z,33.20
2023-04-14T17:23:55.702Z,34.10
2023-04-14T17:28:59.660Z,32.20
2023-04-14T17:34:03.860Z,31.52
2023-04-14T17:39:08.562Z,35.58
2023-04-14T17:44:12.752Z,68.35
2023-04-14T17:49:16.763Z,53.30
2023-04-14T17:54:19.246Z,44.25
2023-04-14T17:59:21.928Z,38.43
2023-04-14T18:04:26.682Z,32.13
2023-04-14T18:09:29.417Z,33.00
2023-04-14T18:14:34.682Z,34.97
2023-04-14T18:19:37.279Z,41.67
2023-04-14T18:29:46.847Z,37.33
2023-04-14T18:34:49.535Z,33.60
2023-04-14T18:39:52.000Z,40.53
2023-04-14T18:44:54.702Z,33.97
2023-04-14T18:49:57.408Z,26.23
2023-04-14T18:55:15.021Z,17.88
2023-04-14T19:00:17.892Z,13.23
2023-04-14T19:05:20.552Z,12.52
2023-04-14T19:10:23.588Z,13.85
2023-04-14T19:15:30.021Z,12.18
2023-04-14T19:20:33.812Z,14.38
2023-04-14T19:25:38.869Z,12.13
2023-04-14T19:30:41.602Z,11.65
2023-04-14T19:35:45.496Z,16.17
2023-04-14T19:40:49.556Z,12.57
2023-04-14T19:45:54.421Z,15.20
2023-04-14T19:55:59.373Z,14.55
2023-04-14T20:01:02.000Z,15.53
2023-04-14T20:06:04.610Z,15.70
2023-04-14T20:11:07.976Z,14.60
2023-04-14T20:16:10.530Z,11.68
2023-04-14T20:21:14.406Z,17.20
2023-04-14T20:26:19.807Z,14.63
2023-04-14T20:31:22.434Z,11.82
2023-04-14T20:36:26.032Z,10.93
2023-04-14T20:41:28.685Z,9.93
2023-04-14T20:46:31.286Z,10.73
2023-04-14T20:51:34.072Z,15.87
2023-04-14T20:56:38.195Z,11.07
2023-04-14T21:01:42.814Z,10.80
2023-04-14T21:06:45.534Z,10.50
2023-04-14T21:11:48.030Z,10.03
2023-04-14T21:17:10.812Z,9.63
2023-04-14T21:22:13.320Z,10.48
2023-04-14T21:27:17.006Z,9.93
2023-04-14T21:32:22.073Z,9.43
2023-04-14T21:37:25.623Z,7.68
2023-04-14T21:42:28.121Z,7.70
2023-04-14T21:47:31.427Z,7.30
2023-04-14T21:52:35.814Z,8.30
2023-04-14T21:57:48.091Z,8.20
2023-04-14T22:02:52.231Z,9.00
2023-04-14T22:07:56.102Z,8.32
2023-04-14T22:13:00.646Z,8.45
2023-04-14T22:18:07.760Z,9.05
2023-04-14T22:23:10.223Z,9.00
2023-04-14T22:28:14.341Z,8.90
2023-04-14T22:33:16.904Z,9.23
2023-04-14T22:38:19.580Z,9.20
2023-04-14T22:43:22.687Z,9.43
2023-04-14T22:48:27.549Z,8.70
2023-04-14T22:53:30.043Z,8.50
2023-04-14T22:58:39.352Z,8.00
2023-04-14T23:03:43.550Z,9.55
2023-04-14T23:08:51.107Z,8.90
2023-04-14T23:13:53.726Z,8.88
2023-04-14T23:18:59.600Z,7.90
2023-04-14T23:24:02.162Z,8.10
2023-04-14T23:29:06.849Z,9.10
2023-04-14T23:34:11.236Z,9.05
2023-04-14T23:39:17.785Z,8.00
2023-04-14T23:44:20.266Z,8.27
2023-04-14T23:49:35.461Z,7.97
2023-04-14T23:54:38.390Z,8.85
2023-04-14T23:59:42.409Z,9.10
